createdAt,value
2023-05-14T00:00:23.809Z,95880.67
2023-05-14T00:03:12.102Z,95885.43
2023-05-14T00:05:40.463Z,95881.48
2023-05-14T00:08:08.480Z,95877.98
2023-05-14T00:10:36.618Z,95872.31
2023-05-14T00:13:04.608Z,95872.21
2023-05-14T00:15:34.318Z,95871.77
2023-05-14T00:18:02.778Z,95873.27
2023-05-14T00:20:31.289Z,95873.79
2023-05-14T00:22:59.373Z,95869.73
2023-05-14T00:25:27.637Z,95876.77
2023-05-14T00:27:55.977Z,95875.85
2023-05-14T00:30:24.652Z,95870.67
2023-05-14T00:32:53.079Z,95864.46
2023-05-14T00:35:21.855Z,95868.89
2023-05-14T00:37:49.835Z,95872.34
2023-05-14T00:40:17.969Z,95873.30
2023-05-14T00:42:46.380Z,95869.26
2023-05-14T00:45:14.329Z,95866.70
2023-05-14T00:47:42.525Z,95868.79
2023-05-14T00:50:12.409Z,95867.76
2023-05-14T00:52:40.906Z,95866.85
2023-05-14T00:55:09.460Z,95863.13
2023-05-14T00:57:37.738Z,95861.11
2023-05-14T01:00:06.811Z,95861.58
2023-05-14T01:02:35.087Z,95862.67
2023-05-14T01:05:03.778Z,95861.46
2023-05-14T01:07:43.803Z,95860.16
2023-05-14T01:10:27.301Z,95859.39
2023-05-14T01:13:10.382Z,95858.20
2023-05-14T01:15:39.978Z,95852.78
2023-05-14T01:18:10.702Z,95852.86
2023-05-14T01:20:38.906Z,95850.80
2023-05-14T01:23:06.965Z,95856.15
2023-05-14T01:25:35.635Z,95858.15
2023-05-14T01:28:20.198Z,95861.10
2023-05-14T01:31:16.390Z,95861.21
2023-05-14T01:33:44.885Z,95852.42
2023-05-14T01:36:13.327Z,95844.34
2023-05-14T01:38:45.858Z,95850.08
2023-05-14T01:41:15.792Z,95851.91
2023-05-14T01:43:45.736Z,95843.94
2023-05-14T01:46:13.814Z,95837.74
2023-05-14T01:48:41.945Z,95837.27
2023-05-14T01:51:10.095Z,95842.24
2023-05-14T01:53:38.560Z,95837.44
2023-05-14T01:56:07.005Z,95834.39
2023-05-14T01:58:35.012Z,95833.91
2023-05-14T02:01:03.235Z,95829.80
2023-05-14T02:03:31.640Z,95827.02
2023-05-14T02:05:59.986Z,95822.59
2023-05-14T02:08:28.724Z,95822.76
2023-05-14T02:10:56.764Z,95821.83
2023-05-14T02:13:26.545Z,95821.15
2023-05-14T02:15:54.594Z,95821.55
2023-05-14T02:18:22.581Z,95831.45
2023-05-14T02:20:50.619Z,95835.05
2023-05-14T02:23:19.505Z,95833.73
2023-05-14T02:25:49.384Z,95825.89
2023-05-14T02:28:17.383Z,95828.99
2023-05-14T02:30:45.640Z,95824.91
2023-05-14T02:33:13.755Z,95821.02
2023-05-14T02:35:41.759Z,95820.61
2023-05-14T02:38:09.792Z,95813.86
2023-05-14T02:40:37.894Z,95814.02
2023-05-14T02:43:06.253Z,95816.84
2023-05-14T02:45:34.220Z,95818.17
2023-05-14T02:48:02.620Z,95819.54
2023-05-14T02:50:32.054Z,95815.23
2023-05-14T02:53:00.215Z,95816.47
2023-05-14T02:55:28.246Z,95813.66
2023-05-14T02:57:56.988Z,95816.28
2023-05-14T03:00:25.240Z,95815.90
2023-05-14T03:02:53.765Z,95815.10
2023-05-14T03:05:22.455Z,95816.81
2023-05-14T03:07:53.685Z,95820.11
2023-05-14T03:10:22.029Z,95822.06
2023-05-14T03:12:50.561Z,95821.21
2023-05-14T03:15:18.736Z,95817.02
2023-05-14T03:17:46.896Z,95819.49
2023-05-14T03:20:15.261Z,95823.97
2023-05-14T03:22:43.255Z,95825.23
2023-05-14T03:25:11.298Z,95823.98
2023-05-14T03:27:39.519Z,95823.90
2023-05-14T03:30:08.626Z,95827.45
2023-05-14T03:32:37.612Z,95821.05
2023-05-14T03:35:06.481Z,95816.40
2023-05-14T03:37:34.539Z,95815.34
2023-05-14T03:40:03.134Z,95813.30
2023-05-14T03:42:31.175Z,95815.33
2023-05-14T03:44:59.232Z,95810.48
2023-05-14T03:47:27.252Z,95811.31
2023-05-14T03:49:55.485Z,95810.91
2023-05-14T03:52:23.789Z,95809.05
2023-05-14T03:54:52.076Z,95810.70
2023-05-14T03:57:20.036Z,95814.30
2023-05-14T03:59:48.206Z,95820.02
2023-05-14T04:02:16.421Z,95821.75
2023-05-14T04:04:44.739Z,95822.05
2023-05-14T04:07:12.918Z,95817.13
2023-05-14T04:09:41.109Z,95818.20
2023-05-14T04:12:09.776Z,95809.83
2023-05-14T04:14:37.901Z,95813.81
2023-05-14T04:17:06.042Z,95818.36
2023-05-14T04:19:34.090Z,95816.48
2023-05-14T04:22:02.381Z,95816.30
2023-05-14T04:24:30.791Z,95815.12
2023-05-14T04:26:58.965Z,95811.85
2023-05-14T04:29:27.462Z,95807.45
2023-05-14T04:31:56.204Z,95811.66
2023-05-14T04:34:24.354Z,95808.14
2023-05-14T04:36:52.759Z,95808.77
2023-05-14T04:39:21.001Z,95803.34
2023-05-14T04:41:48.995Z,95801.45
2023-05-14T04:44:17.508Z,95799.65
2023-05-14T04:46:45.701Z,95796.20
2023-05-14T04:49:13.779Z,95785.34
2023-05-14T04:51:42.078Z,95784.20
2023-05-14T04:54:10.496Z,95780.10
2023-05-14T04:56:38.766Z,95775.76
2023-05-14T04:59:07.180Z,95774.54
2023-05-14T05:01:35.401Z,95770.15
2023-05-14T05:04:03.600Z,95767.10
2023-05-14T05:06:31.831Z,95769.98
2023-05-14T05:09:01.985Z,95770.66
2023-05-14T05:11:30.629Z,95766.27
2023-05-14T05:13:58.689Z,95762.71
2023-05-14T05:16:26.837Z,95759.09
2023-05-14T05:18:55.085Z,95754.00
2023-05-14T05:21:23.554Z,95749.88
2023-05-14T05:23:51.559Z,95747.70
2023-05-14T05:26:20.033Z,95746.51
2023-05-14T05:28:48.301Z,95748.13
2023-05-14T05:31:19.068Z,95748.29
2023-05-14T05:33:48.406Z,95742.76
2023-05-14T05:36:16.771Z,95744.70
2023-05-14T05:38:44.763Z,95743.66
2023-05-14T05:41:12.973Z,95742.13
2023-05-14T05:43:41.027Z,95739.33
2023-05-14T05:46:09.149Z,95740.77
2023-05-14T05:48:37.201Z,95737.73
2023-05-14T05:51:05.416Z,95737.08
2023-05-14T05:53:33.438Z,95738.55
2023-05-14T05:56:01.478Z,95739.05
2023-05-14T05:58:29.837Z,95735.11
2023-05-14T06:00:58.404Z,95742.81
2023-05-14T06:03:27.223Z,95742.16
2023-05-14T06:05:55.242Z,95738.23
2023-05-14T06:08:23.339Z,95736.88
2023-05-14T06:10:51.476Z,95734.33
2023-05-14T06:13:19.764Z,95734.08
2023-05-14T06:15:48.048Z,95726.41
2023-05-14T06:18:16.092Z,95730.86
2023-05-14T06:20:45.002Z,95732.96
2023-05-14T06:23:13.152Z,95726.30
2023-05-14T06:25:41.219Z,95727.08
2023-05-14T06:28:09.313Z,95722.05
2023-05-14T06:30:37.592Z,95716.02
2023-05-14T06:33:05.747Z,95709.48
2023-05-14T06:35:34.799Z,95710.83
2023-05-14T06:38:02.897Z,95710.15
2023-05-14T06:40:31.083Z,95707.86
2023-05-14T06:42:59.172Z,95707.67
2023-05-14T06:45:27.591Z,95703.20
2023-05-14T06:47:55.733Z,95697.96
2023-05-14T06:50:24.337Z,95692.45
2023-05-14T06:52:52.498Z,95688.60
2023-05-14T06:55:20.724Z,95675.41
2023-05-14T06:57:48.703Z,95675.92
2023-05-14T07:00:17.534Z,95669.70
2023-05-14T07:02:45.756Z,95672.32
2023-05-14T07:05:14.096Z,95666.86
2023-05-14T07:07:42.152Z,95663.74
2023-05-14T07:10:10.892Z,95654.69
2023-05-14T07:12:38.784Z,95654.45
2023-05-14T07:15:07.692Z,95651.96
2023-05-14T07:17:36.217Z,95649.36
2023-05-14T07:20:04.819Z,95644.44
2023-05-14T07:22:32.791Z,95640.78
2023-05-14T07:25:00.879Z,95638.30
2023-05-14T07:27:28.942Z,95637.71
2023-05-14T07:29:57.023Z,95638.59
2023-05-14T07:32:25.549Z,95641.20
2023-05-14T07:34:53.572Z,95633.79
2023-05-14T07:37:24.133Z,95632.00
2023-05-14T07:39:53.590Z,95630.99
2023-05-14T07:42:34.384Z,95632.58
2023-05-14T07:45:05.592Z,95625.77
2023-05-14T07:47:33.843Z,95623.33
2023-05-14T07:50:02.248Z,95623.73
2023-05-14T07:52:30.410Z,95617.42
2023-05-14T07:54:58.693Z,95618.98
2023-05-14T07:57:27.219Z,95606.81
2023-05-14T07:59:57.204Z,95604.86
2023-05-14T08:02:25.523Z,95598.66
2023-05-14T08:04:54.104Z,95602.39
2023-05-14T08:07:22.246Z,95597.65
2023-05-14T08:09:50.696Z,95594.63
2023-05-14T08:12:18.800Z,95590.06
2023-05-14T08:14:46.919Z,95591.17
2023-05-14T08:17:15.132Z,95585.02
2023-05-14T08:19:43.795Z,95584.94
2023-05-14T08:22:11.792Z,95573.42
2023-05-14T08:24:39.801Z,95568.52
2023-05-14T08:27:07.982Z,95566.02
2023-05-14T08:29:35.984Z,95556.08
2023-05-14T08:32:12.128Z,95550.20
2023-05-14T08:34:47.818Z,95546.92
2023-05-14T08:37:15.906Z,95540.04
2023-05-14T08:39:44.157Z,95537.77
2023-05-14T08:42:13.928Z,95534.45
2023-05-14T08:44:51.927Z,95533.20
2023-05-14T08:47:24.150Z,95532.48
2023-05-14T08:50:04.586Z,95536.84
2023-05-14T08:52:34.406Z,95534.96
2023-05-14T08:55:06.644Z,95531.43
2023-05-14T08:57:35.945Z,95528.45
2023-05-14T09:00:13.473Z,95517.77
2023-05-14T09:02:43.278Z,95517.13
2023-05-14T09:05:12.591Z,95514.48
2023-05-14T09:07:41.572Z,95507.80
2023-05-14T09:10:10.808Z,95506.30
2023-05-14T09:12:39.071Z,95506.80
2023-05-14T09:15:07.577Z,95504.46
2023-05-14T09:17:35.831Z,95500.73
2023-05-14T09:20:04.600Z,95503.34
2023-05-14T09:22:34.497Z,95499.13
2023-05-14T09:25:09.547Z,95497.14
2023-05-14T09:27:38.260Z,95499.35
2023-05-14T09:30:07.940Z,95491.85
2023-05-14T09:32:40.575Z,95494.02
2023-05-14T09:35:23.085Z,95491.77
2023-05-14T09:37:53.953Z,95490.78
2023-05-14T09:40:24.676Z,95490.93
2023-05-14T09:42:53.044Z,95484.77
2023-05-14T09:45:21.373Z,95480.98
2023-05-14T09:47:49.608Z,95473.26
2023-05-14T09:50:17.720Z,95481.96
2023-05-14T09:52:46.052Z,95480.65
2023-05-14T09:55:15.022Z,95475.30
2023-05-14T09:57:43.187Z,95474.02
2023-05-14T10:00:12.872Z,95469.11
2023-05-14T10:02:44.304Z,95463.14
2023-05-14T10:05:13.453Z,95463.24
2023-05-14T10:07:48.377Z,95457.96
2023-05-14T10:10:19.839Z,95449.79
2023-05-14T10:12:58.653Z,95443.25
2023-05-14T10:15:51.381Z,95439.04
2023-05-14T10:18:23.700Z,95435.22
2023-05-14T10:21:05.845Z,95437.49
2023-05-14T10:23:38.065Z,95439.52
2023-05-14T10:26:08.124Z,95437.45
2023-05-14T10:28:36.794Z,95440.94
2023-05-14T10:31:05.048Z,95439.66
2023-05-14T10:33:47.469Z,95431.86
2023-05-14T10:36:15.815Z,95433.80
2023-05-14T10:38:43.871Z,95428.64
2023-05-14T10:41:16.696Z,95430.02
2023-05-14T10:43:44.983Z,95427.11
2023-05-14T10:46:14.261Z,95428.15
2023-05-14T10:48:43.742Z,95426.98
2023-05-14T10:51:12.821Z,95423.51
2023-05-14T10:53:43.229Z,95421.14
2023-05-14T10:56:14.485Z,95424.34
2023-05-14T10:58:44.899Z,95421.27
2023-05-14T11:01:13.919Z,95424.99
2023-05-14T11:03:46.908Z,95424.14
2023-05-14T11:06:16.107Z,95423.41
2023-05-14T11:08:44.833Z,95427.98
2023-05-14T11:11:13.206Z,95423.29
2023-05-14T11:13:41.569Z,95420.36
2023-05-14T11:18:42.036Z,95422.64
2023-05-14T11:21:10.400Z,95416.95
2023-05-14T11:23:38.561Z,95423.80
2023-05-14T11:26:07.405Z,95428.37
2023-05-14T11:28:35.706Z,95431.58
2023-05-14T11:31:05.723Z,95427.65
2023-05-14T11:33:33.788Z,95427.52
2023-05-14T11:36:02.156Z,95424.86
2023-05-14T11:38:30.159Z,95424.11
2023-05-14T11:40:59.715Z,95418.20
2023-05-14T11:43:29.582Z,95416.38
2023-05-14T11:45:57.949Z,95416.63
2023-05-14T11:48:26.080Z,95410.32
2023-05-14T11:50:54.073Z,95406.91
2023-05-14T11:53:27.448Z,95411.30
2023-05-14T11:55:57.957Z,95406.13
2023-05-14T11:58:26.540Z,95413.34
2023-05-14T12:00:57.092Z,95415.61
2023-05-14T12:03:26.738Z,95416.99
2023-05-14T12:06:07.241Z,95414.65
2023-05-14T12:08:35.272Z,95422.77
2023-05-14T12:11:03.693Z,95421.80
2023-05-14T12:13:33.112Z,95422.67
2023-05-14T12:16:02.767Z,95426.68
2023-05-14T12:18:32.868Z,95425.64
2023-05-14T12:21:05.295Z,95423.65
2023-05-14T12:23:34.124Z,95421.61
2023-05-14T12:26:07.009Z,95418.05
2023-05-14T12:28:38.902Z,95414.35
2023-05-14T12:31:07.047Z,95411.60
2023-05-14T12:33:35.113Z,95417.27
2023-05-14T12:38:34.299Z,95423.36
2023-05-14T12:41:02.337Z,95419.19
2023-05-14T12:43:32.239Z,95420.14
2023-05-14T12:46:00.337Z,95422.41
2023-05-14T12:48:28.396Z,95423.05
2023-05-14T12:50:56.364Z,95425.77
2023-05-14T12:53:24.416Z,95433.17
2023-05-14T12:55:53.086Z,95435.36
2023-05-14T12:58:21.100Z,95430.55
2023-05-14T13:00:49.184Z,95424.22
2023-05-14T13:03:17.396Z,95427.70
2023-05-14T13:05:45.490Z,95432.08
2023-05-14T13:08:17.879Z,95429.48
2023-05-14T13:10:46.064Z,95429.08
2023-05-14T13:13:15.851Z,95429.25
2023-05-14T13:15:46.804Z,95424.98
2023-05-14T13:18:15.376Z,95418.75
2023-05-14T13:20:43.442Z,95416.52
2023-05-14T13:23:11.719Z,95420.75
2023-05-14T13:25:40.061Z,95411.90
2023-05-14T13:28:08.890Z,95408.05
2023-05-14T13:30:36.911Z,95400.35
2023-05-14T13:33:05.861Z,95397.54
2023-05-14T13:35:34.807Z,95394.88
2023-05-14T13:38:03.111Z,95397.58
2023-05-14T13:40:31.329Z,95390.21
2023-05-14T13:42:59.354Z,95392.44
2023-05-14T13:45:27.500Z,95394.65
2023-05-14T13:47:56.781Z,95390.27
2023-05-14T13:50:24.874Z,95381.08
2023-05-14T13:52:52.867Z,95379.01
2023-05-14T13:55:20.937Z,95368.70
2023-05-14T13:57:49.142Z,95363.94
2023-05-14T14:00:17.886Z,95360.54
2023-05-14T14:02:45.918Z,95357.27
2023-05-14T14:05:14.145Z,95356.18
2023-05-14T14:07:42.215Z,95348.63
2023-05-14T14:10:10.835Z,95343.42
2023-05-14T14:12:38.862Z,95340.65
2023-05-14T14:15:07.868Z,95342.35
2023-05-14T14:17:36.873Z,95347.04
2023-05-14T14:20:06.162Z,95343.79
2023-05-14T14:22:34.448Z,95342.02
2023-05-14T14:25:03.085Z,95338.39
2023-05-14T14:27:32.340Z,95336.16
2023-05-14T14:30:00.679Z,95335.56
2023-05-14T14:32:29.434Z,95334.13
2023-05-14T14:34:57.482Z,95333.05
2023-05-14T14:37:25.590Z,95334.45
2023-05-14T14:39:53.826Z,95336.65
2023-05-14T14:42:21.992Z,95339.08
2023-05-14T14:44:50.121Z,95344.92
2023-05-14T14:47:18.257Z,95341.79
2023-05-14T14:49:46.435Z,95341.02
2023-05-14T14:52:14.486Z,95339.56
2023-05-14T14:54:42.511Z,95339.54
2023-05-14T14:57:10.820Z,95338.82
2023-05-14T14:59:38.862Z,95334.21
2023-05-14T15:02:09.067Z,95319.87
2023-05-14T15:04:38.781Z,95313.69
2023-05-14T15:07:06.994Z,95307.85
2023-05-14T15:09:35.127Z,95313.40
2023-05-14T15:12:03.254Z,95301.73
2023-05-14T15:14:31.271Z,95299.61
2023-05-14T15:16:59.327Z,95305.09
2023-05-14T15:19:29.632Z,95306.23
2023-05-14T15:21:57.852Z,95309.04
2023-05-14T15:24:26.341Z,95309.64
2023-05-14T15:26:54.430Z,95306.74
2023-05-14T15:29:22.437Z,95304.30
2023-05-14T15:31:50.878Z,95304.23
2023-05-14T15:34:19.003Z,95300.30
2023-05-14T15:36:47.152Z,95298.60
2023-05-14T15:39:15.367Z,95300.80
2023-05-14T15:41:43.430Z,95296.98
2023-05-14T15:44:11.462Z,95293.10
2023-05-14T15:46:39.754Z,95285.62
2023-05-14T15:49:07.858Z,95282.13
2023-05-14T15:51:35.987Z,95279.85
2023-05-14T15:54:04.195Z,95283.81
2023-05-14T15:56:32.476Z,95279.94
2023-05-14T15:59:00.652Z,95274.64
2023-05-14T16:01:28.619Z,95268.77
2023-05-14T16:03:56.734Z,95271.09
2023-05-14T16:06:26.073Z,95275.21
2023-05-14T16:08:54.650Z,95274.11
2023-05-14T16:11:22.705Z,95270.39
2023-05-14T16:13:50.902Z,95270.41
2023-05-14T16:16:20.869Z,95271.09
2023-05-14T16:18:49.494Z,95271.45
2023-05-14T16:21:17.637Z,95271.92
2023-05-14T16:23:46.469Z,95271.48
2023-05-14T16:26:14.549Z,95278.80
2023-05-14T16:28:42.851Z,95280.17
2023-05-14T16:31:11.128Z,95279.58
2023-05-14T16:33:39.522Z,95281.32
2023-05-14T16:36:07.715Z,95277.14
2023-05-14T16:38:41.446Z,95274.14
2023-05-14T16:41:16.388Z,95268.35
2023-05-14T16:43:45.611Z,95273.67
2023-05-14T16:46:14.016Z,95277.50
2023-05-14T16:48:43.507Z,95283.78
2023-05-14T16:51:13.115Z,95285.64
2023-05-14T16:53:41.521Z,95285.17
2023-05-14T16:56:09.608Z,95282.84
2023-05-14T16:58:37.941Z,95277.95
2023-05-14T17:01:08.728Z,95275.61
2023-05-14T17:03:37.817Z,95266.94
2023-05-14T17:06:06.605Z,95258.20
2023-05-14T17:08:35.812Z,95253.91
2023-05-14T17:11:05.976Z,95255.28
2023-05-14T17:13:33.704Z,95244.26
2023-05-14T17:16:16.490Z,95230.52
2023-05-14T17:18:43.431Z,95228.48
2023-05-14T17:21:11.813Z,95224.45
2023-05-14T17:23:39.904Z,95223.46
2023-05-14T17:26:08.394Z,95222.21
2023-05-14T17:28:36.432Z,95214.90
2023-05-14T17:31:04.506Z,95218.59
2023-05-14T17:33:32.694Z,95216.42
2023-05-14T17:36:00.700Z,95223.35
2023-05-14T17:38:28.886Z,95222.34
2023-05-14T17:40:57.156Z,95226.43
2023-05-14T17:43:25.169Z,95232.86
2023-05-14T17:45:54.818Z,95235.73
2023-05-14T17:48:24.207Z,95235.36
2023-05-14T17:50:52.488Z,95233.38
2023-05-14T17:53:20.589Z,95243.06
2023-05-14T17:55:48.722Z,95254.94
2023-05-14T17:58:16.760Z,95254.32
2023-05-14T18:00:44.993Z,95256.37
2023-05-14T18:03:14.426Z,95253.67
2023-05-14T18:05:42.874Z,95247.72
2023-05-14T18:08:10.965Z,95237.80
2023-05-14T18:10:39.132Z,95232.62
2023-05-14T18:13:07.132Z,95230.73
2023-05-14T18:15:36.872Z,95230.59
2023-05-14T18:18:05.496Z,95232.35
2023-05-14T18:20:35.338Z,95228.21
2023-05-14T18:23:03.676Z,95227.55
2023-05-14T18:25:32.229Z,95224.34
2023-05-14T18:28:00.473Z,95222.34
2023-05-14T18:30:28.546Z,95224.83
2023-05-14T18:32:56.735Z,95225.25
2023-05-14T18:35:24.921Z,95219.05
2023-05-14T18:37:54.086Z,95213.58
2023-05-14T18:40:22.301Z,95217.42
2023-05-14T18:42:50.504Z,95223.30
2023-05-14T18:45:18.514Z,95223.40
2023-05-14T18:47:47.923Z,95226.27
2023-05-14T18:50:16.079Z,95226.39
2023-05-14T18:52:44.425Z,95228.34
2023-05-14T18:55:12.834Z,95227.12
2023-05-14T18:57:40.891Z,95225.66
2023-05-14T19:00:09.937Z,95234.42
2023-05-14T19:02:38.085Z,95239.00
2023-05-14T19:05:06.957Z,95235.83
2023-05-14T19:07:35.200Z,95232.20
2023-05-14T19:10:03.925Z,95226.04
2023-05-14T19:12:32.157Z,95228.62
2023-05-14T19:15:00.822Z,95223.29
2023-05-14T19:17:29.448Z,95216.45
2023-05-14T19:19:57.483Z,95207.22
2023-05-14T19:22:25.586Z,95203.54
2023-05-14T19:24:53.621Z,95205.11
2023-05-14T19:27:21.675Z,95209.85
2023-05-14T19:29:50.058Z,95207.95
2023-05-14T19:32:18.169Z,95204.80
2023-05-14T19:34:46.154Z,95209.80
2023-05-14T19:37:14.320Z,95210.70
2023-05-14T19:39:42.333Z,95214.91
2023-05-14T19:42:10.451Z,95210.70
2023-05-14T19:44:38.631Z,95208.18
2023-05-14T19:47:07.662Z,95200.81
2023-05-14T19:49:36.190Z,95198.95
2023-05-14T19:52:04.904Z,95206.80
2023-05-14T19:54:32.947Z,95200.45
2023-05-14T19:57:00.968Z,95199.86
2023-05-14T19:59:29.912Z,95200.27
2023-05-14T20:01:58.004Z,95192.00
2023-05-14T20:04:26.276Z,95186.53
2023-05-14T20:06:54.280Z,95181.85
2023-05-14T20:09:22.966Z,95176.06
2023-05-14T20:11:51.064Z,95163.69
2023-05-14T20:14:19.145Z,95167.80
2023-05-14T20:16:49.010Z,95166.11
2023-05-14T20:19:17.393Z,95168.80
2023-05-14T20:21:45.721Z,95169.48
2023-05-14T20:24:13.695Z,95166.31
2023-05-14T20:26:41.844Z,95167.11
2023-05-14T20:29:11.464Z,95159.42
2023-05-14T20:31:39.425Z,95172.69
2023-05-14T20:34:07.531Z,95163.27
2023-05-14T20:36:36.136Z,95163.11
2023-05-14T20:39:06.237Z,95157.17
2023-05-14T20:41:34.390Z,95150.90
2023-05-14T20:44:02.338Z,95150.54
2023-05-14T20:46:30.864Z,95150.85
2023-05-14T20:49:01.081Z,95145.90
2023-05-14T20:51:29.097Z,95130.34
2023-05-14T20:53:57.155Z,95127.50
2023-05-14T20:56:26.492Z,95133.81
2023-05-14T20:58:54.431Z,95132.96
2023-05-14T21:01:22.469Z,95134.38
2023-05-14T21:03:50.753Z,95131.39
2023-05-14T21:06:19.141Z,95126.77
2023-05-14T21:08:47.345Z,95116.54
2023-05-14T21:11:15.633Z,95116.80
2023-05-14T21:13:44.648Z,95121.70
2023-05-14T21:16:13.264Z,95127.27
2023-05-14T21:18:41.643Z,95134.92
2023-05-14T21:21:09.720Z,95132.83
2023-05-14T21:23:38.039Z,95133.09
2023-05-14T21:26:06.202Z,95144.82
2023-05-14T21:28:34.396Z,95140.78
2023-05-14T21:31:02.593Z,95128.59
2023-05-14T21:33:30.551Z,95120.70
2023-05-14T21:35:59.018Z,95109.91
2023-05-14T21:38:27.253Z,95097.50
2023-05-14T21:40:55.509Z,95083.30
2023-05-14T21:43:23.749Z,95088.98
2023-05-14T21:45:51.854Z,95097.46
2023-05-14T21:48:20.852Z,95095.58
2023-05-14T21:50:49.141Z,95095.30
2023-05-14T21:53:17.196Z,95095.35
2023-05-14T21:55:45.281Z,95090.61
2023-05-14T21:58:13.291Z,95089.05
2023-05-14T22:00:41.484Z,95086.09
2023-05-14T22:03:09.697Z,95093.02
2023-05-14T22:05:38.085Z,95097.77
2023-05-14T22:08:06.485Z,95100.17
2023-05-14T22:10:35.230Z,95098.34
2023-05-14T22:13:03.260Z,95094.72
2023-05-14T22:15:31.380Z,95088.92
2023-05-14T22:17:59.634Z,95083.20
2023-05-14T22:20:27.834Z,95079.27
2023-05-14T22:22:55.870Z,95078.20
2023-05-14T22:25:24.149Z,95066.27
2023-05-14T22:27:52.370Z,95062.35
2023-05-14T22:30:21.308Z,95058.89
2023-05-14T22:32:49.439Z,95053.79
2023-05-14T22:35:17.697Z,95048.00
2023-05-14T22:37:45.845Z,95050.69
2023-05-14T22:40:14.601Z,95053.56
2023-05-14T22:42:42.658Z,95054.93
2023-05-14T22:45:11.294Z,95054.46
2023-05-14T22:47:39.455Z,95058.20
2023-05-14T22:50:11.749Z,95062.91
2023-05-14T22:52:40.604Z,95069.22
2023-05-14T22:55:08.890Z,95069.42
2023-05-14T22:57:37.074Z,95070.64
2023-05-14T23:00:06.946Z,95063.26
2023-05-14T23:02:34.968Z,95061.80
2023-05-14T23:05:03.484Z,95060.23
2023-05-14T23:07:31.575Z,95056.66
2023-05-14T23:09:59.747Z,95051.04
2023-05-14T23:12:27.724Z,95047.30
2023-05-14T23:14:55.794Z,95048.64
2023-05-14T23:17:23.973Z,95046.91
2023-05-14T23:19:52.843Z,95045.58
2023-05-14T23:22:21.236Z,95043.84
2023-05-14T23:24:49.269Z,95045.02
2023-05-14T23:27:17.642Z,95040.12
2023-05-14T23:29:45.682Z,95034.40
2023-05-14T23:32:13.818Z,95033.98
2023-05-14T23:34:41.989Z,95030.52
2023-05-14T23:37:10.290Z,95026.02
2023-05-14T23:39:38.326Z,95025.45
2023-05-14T23:42:06.564Z,95021.59
2023-05-14T23:44:34.559Z,95018.92
2023-05-14T23:47:03.058Z,95019.35
2023-05-14T23:49:31.458Z,95018.30
2023-05-14T23:51:59.541Z,95022.16
2023-05-14T23:54:27.687Z,95015.85
2023-05-14T23:56:56.040Z,95022.64
2023-05-14T23:59:24.068Z,95023.48
